Time;durP1;ratioP1;P1;durP2;ratioP2;P2;SDS_P1;SDS_P2;PMS_P1;PMS_P2;Temp;Humidity;BMP_temperature;BMP_pressure;BME280_temperature;BME280_humidity;BME280_pressure;Samples;Min_cycle;Max_cycle;Signal;HPM_P1;HPM_P2
2022/09/11 00:01:15;;;;;;;22.42;18.13;;;;;;;18.39;63.61;99837.34;5070046;28;20098;-62
2022/09/11 00:03:44;;;;;;;23.38;17.05;;;;;;;18.36;63.88;99838.47;5069819;28;20596;-62
2022/09/11 00:06:13;;;;;;;21.98;18.48;;;;;;;18.33;64.15;99837.91;5069055;28;20083;-63
2022/09/11 00:08:40;;;;;;;20.92;16.10;;;;;;;18.32;63.87;99838.88;5072177;28;20048;-62
2022/09/11 00:11:19;;;;;;;22.70;17.05;;;;;;;18.27;64.49;99843.78;5073892;28;20090;-63
2022/09/11 00:13:48;;;;;;;23.25;19.27;;;;;;;18.27;64.33;99841.94;5073748;28;20083;-62
2022/09/11 00:16:25;;;;;;;24.33;18.48;;;;;;;18.23;64.84;99844.03;5072329;28;20133;-62
2022/09/11 00:18:54;;;;;;;24.00;18.63;;;;;;;18.25;64.59;99851.06;5073319;28;20040;-62
2022/09/11 00:21:20;;;;;;;27.42;19.90;;;;;;;18.23;64.41;99857.38;5072475;28;20106;-61
2022/09/11 00:23:50;;;;;;;24.67;19.70;;;;;;;18.21;64.34;99848.66;5073527;28;20505;-63
2022/09/11 00:26:18;;;;;;;23.30;18.38;;;;;;;18.20;64.34;99854.97;5073711;28;20083;-61
2022/09/11 00:28:45;;;;;;;25.98;19.27;;;;;;;18.19;64.78;99860.41;5071376;28;20056;-62
2022/09/11 00:31:14;;;;;;;26.73;20.25;;;;;;;18.19;64.94;99863.09;5073084;28;20111;-61
2022/09/11 00:33:42;;;;;;;31.40;21.45;;;;;;;18.18;64.73;99861.41;5072068;28;20095;-63
2022/09/11 00:36:17;;;;;;;28.38;20.42;;;;;;;18.16;65.20;99860.72;5073324;28;20056;-61
2022/09/11 00:38:45;;;;;;;29.73;21.13;;;;;;;18.17;65.04;99859.72;5072984;28;20416;-63
2022/09/11 00:41:15;;;;;;;31.05;21.13;;;;;;;18.17;65.38;99867.72;5072981;28;20416;-63
2022/09/11 00:44:12;;;;;;;30.08;22.67;;;;;;;18.16;66.20;99863.38;5072282;28;20049;-62
2022/09/11 00:46:49;;;;;;;31.75;22.60;;;;;;;18.17;66.14;99865.88;5072487;28;20084;-61
2022/09/11 00:49:25;;;;;;;31.35;22.17;;;;;;;18.20;66.08;99870.09;5073156;28;20048;-62
2022/09/11 00:51:59;;;;;;;31.70;23.58;;;;;;;18.22;66.15;99868.16;5071798;28;20084;-62
2022/09/11 00:54:30;;;;;;;57.15;24.88;;;;;;;18.24;66.23;99863.53;5072253;28;20103;-62
2022/09/11 00:57:01;;;;;;;36.30;24.20;;;;;;;18.27;66.30;99871.25;5072895;28;20048;-62
2022/09/11 00:59:30;;;;;;;47.03;25.75;;;;;;;18.29;66.12;99868.44;5072904;28;20045;-62
2022/09/11 01:01:57;;;;;;;59.60;25.65;;;;;;;18.31;65.98;99870.00;5071567;28;20155;-62
2022/09/11 01:04:24;;;;;;;81.82;28.08;;;;;;;18.34;66.10;99868.88;5072780;28;20102;-63
2022/09/11 01:06:55;;;;;;;57.05;26.13;;;;;;;18.35;66.61;99871.41;5072180;28;20044;-63
2022/09/11 01:09:28;;;;;;;49.97;26.92;;;;;;;18.36;67.07;99872.28;5071696;28;20061;-62
2022/09/11 01:12:05;;;;;;;34.88;25.35;;;;;;;18.38;67.00;99878.31;5072670;28;20084;-63
2022/09/11 01:14:40;;;;;;;44.88;27.20;;;;;;;18.44;66.90;99877.78;5071315;28;20049;-63
2022/09/11 01:17:17;;;;;;;58.15;25.92;;;;;;;18.42;66.94;99874.38;5072179;28;20128;-61
2022/09/11 01:20:04;;;;;;;80.68;26.40;;;;;;;18.50;66.54;99873.69;5072546;28;20048;-62
2022/09/11 01:22:44;;;;;;;44.25;23.70;;;;;;;18.52;66.91;99878.91;5071201;28;20087;-63
2022/09/11 01:25:50;;;;;;;59.00;24.75;;;;;;;18.51;66.94;99886.06;5072286;28;20087;-62
2022/09/11 01:28:27;;;;;;;77.38;25.63;;;;;;;18.56;66.89;99885.63;5043018;28;20084;-62
2022/09/11 01:31:01;;;;;;;115.03;23.98;;;;;;;18.59;66.55;99882.72;5051340;28;20160;-62
2022/09/11 01:33:45;;;;;;;109.93;26.73;;;;;;;18.57;66.87;99896.16;5052182;28;20124;-62
2022/09/11 01:36:21;;;;;;;65.00;24.85;;;;;;;18.58;67.01;99895.19;5051266;28;20088;-61
2022/09/11 01:39:06;;;;;;;77.28;25.17;;;;;;;18.57;66.79;99901.50;5068388;28;20052;-62
2022/09/11 01:41:52;;;;;;;87.20;22.25;;;;;;;18.60;66.72;99909.25;5070946;28;20049;-61
2022/09/11 01:44:56;;;;;;;114.80;21.05;;;;;;;18.57;66.78;99905.97;5072119;28;20492;-62
2022/09/11 01:47:23;;;;;;;77.68;21.73;;;;;;;18.61;66.38;99910.06;5071665;28;20558;-62
2022/09/11 01:50:01;;;;;;;49.88;20.17;;;;;;;18.58;66.87;99907.69;5071541;28;20467;-62
2022/09/11 01:52:34;;;;;;;138.23;20.88;;;;;;;18.58;66.57;99905.84;5072086;28;20084;-62
2022/09/11 01:55:08;;;;;;;120.80;21.80;;;;;;;18.58;66.29;99911.19;5072029;28;20138;-62
2022/09/11 01:57:47;;;;;;;85.45;20.85;;;;;;;18.55;66.87;99908.81;5071725;28;20056;-62
2022/09/11 02:00:14;;;;;;;55.35;19.10;;;;;;;18.57;66.16;99904.16;5070871;28;20048;-63
2022/09/11 02:03:14;;;;;;;51.50;19.23;;;;;;;18.52;67.01;99910.88;5069983;28;20087;-62
2022/09/11 02:05:48;;;;;;;99.45;22.83;;;;;;;18.57;66.68;99908.66;5071640;28;20088;-62
2022/09/11 02:08:21;;;;;;;38.78;20.75;;;;;;;18.55;67.06;99899.97;5071438;28;20481;-63
2022/09/11 02:11:02;;;;;;;70.93;21.23;;;;;;;18.53;67.39;99902.75;5071387;28;20139;-63
2022/09/11 02:13:35;;;;;;;74.43;19.35;;;;;;;18.56;66.82;99898.97;5071581;28;20127;-61
2022/09/11 02:16:20;;;;;;;71.88;20.30;;;;;;;18.53;67.14;99902.75;5071365;28;20052;-62
2022/09/11 02:18:57;;;;;;;53.50;18.70;;;;;;;18.55;67.16;99906.16;5070986;28;20052;-62
2022/09/11 02:21:24;;;;;;;71.47;17.08;;;;;;;18.58;66.34;99911.19;5070225;28;20466;-64
2022/09/11 02:23:51;;;;;;;60.33;18.55;;;;;;;18.57;66.62;99912.16;5071415;28;20126;-62
2022/09/11 02:26:20;;;;;;;36.50;16.45;;;;;;;18.56;66.72;99918.47;5069985;28;20045;-62
2022/09/11 02:28:47;;;;;;;53.63;18.08;;;;;;;18.57;66.61;99917.50;5070089;28;20044;-63
2022/09/11 02:31:14;;;;;;;44.45;18.20;;;;;;;18.57;66.50;99916.66;5070848;28;20111;-62
2022/09/11 02:33:41;;;;;;;60.45;18.88;;;;;;;18.56;66.56;99914.97;5071074;28;20053;-61
2022/09/11 02:36:27;;;;;;;46.92;16.58;;;;;;;18.52;67.37;99913.53;5071214;28;20052;-62
2022/09/11 02:39:12;;;;;;;29.08;15.77;;;;;;;18.51;67.03;99920.72;5069344;28;20127;-62
2022/09/11 02:42:06;;;;;;;67.47;14.68;;;;;;;18.54;66.88;99924.94;5070952;28;20048;-62
2022/09/11 02:44:32;;;;;;;;;;;;;;;18.55;66.29;99927.47;5071429;28;20387;-63
2022/09/11 02:47:29;;;;;;;42.03;13.63;;;;;;;18.55;66.75;99930.13;5070586;28;20346;-61
2022/09/11 02:50:06;;;;;;;77.55;15.90;;;;;;;18.52;66.57;99930.41;5070282;28;20102;-63
2022/09/11 02:53:11;;;;;;;53.10;14.40;;;;;;;18.47;66.84;99937.97;5071405;28;20094;-61
2022/09/11 02:56:00;;;;;;;86.35;16.05;;;;;;;18.45;66.75;99931.91;5070718;28;20048;-62
2022/09/11 02:58:33;;;;;;;46.40;14.63;;;;;;;18.46;66.54;99937.09;5070425;28;20044;-63
2022/09/11 03:01:01;;;;;;;43.05;16.23;;;;;;;18.46;66.74;99945.09;5069397;28;20080;-61
2022/09/11 03:03:36;;;;;;;58.78;15.77;;;;;;;18.41;67.38;99941.16;5070597;28;20053;-63
2022/09/11 03:06:03;;;;;;;53.50;15.40;;;;;;;18.45;67.04;99942.56;5069450;28;20087;-62
2022/09/11 03:08:31;;;;;;;66.93;15.40;;;;;;;18.43;66.83;99940.03;5069124;28;20049;-62
2022/09/11 03:10:57;;;;;;;64.82;18.98;;;;;;;18.42;66.86;99934.81;5070488;28;20048;-62
2022/09/11 03:13:24;;;;;;;56.78;15.38;;;;;;;18.41;66.57;99941.16;5069091;28;20048;-63
2022/09/11 03:15:50;;;;;;;45.30;19.13;;;;;;;18.40;67.01;99936.78;5070619;28;20134;-61
2022/09/11 03:18:17;;;;;;;84.72;18.70;;;;;;;18.39;66.89;99933.28;5070190;28;20106;-62
2022/09/11 03:20:46;;;;;;;63.70;16.77;;;;;;;18.38;67.13;99934.25;5070271;28;20143;-62
2022/09/11 03:23:13;;;;;;;83.88;18.70;;;;;;;18.38;67.27;99936.94;5070819;28;20091;-63
2022/09/11 03:25:40;;;;;;;38.13;17.30;;;;;;;18.39;67.25;99935.13;5070178;28;20168;-63
2022/09/11 03:28:06;;;;;;;64.18;17.23;;;;;;;18.38;67.13;99930.78;5069648;28;20040;-62
2022/09/11 03:30:33;;;;;;;59.90;18.05;;;;;;;18.39;67.26;99929.78;5070225;28;20110;-65
2022/09/11 03:33:00;;;;;;;55.75;16.02;;;;;;;18.39;67.23;99933.28;5070678;28;20067;-64
2022/09/11 03:35:27;;;;;;;63.38;15.43;;;;;;;18.39;67.05;99929.78;5070254;28;20131;-61
2022/09/11 03:37:54;;;;;;;59.67;15.13;;;;;;;18.38;67.16;99923.59;5069990;28;20131;-62
2022/09/11 03:40:22;;;;;;;68.85;15.45;;;;;;;18.36;67.16;99929.06;5070487;28;20053;-61
2022/09/11 03:42:48;;;;;;;30.98;13.35;;;;;;;18.35;67.15;99935.38;5074524;28;20057;-62
2022/09/11 03:45:15;;;;;;;29.75;14.60;;;;;;;18.35;67.27;99931.84;5074746;28;20060;-63
2022/09/11 03:47:41;;;;;;;71.47;15.98;;;;;;;18.34;67.03;99933.69;5073912;28;20080;-65
2022/09/11 03:50:09;;;;;;;47.38;13.68;;;;;;;18.33;67.00;99939.16;5073833;28;20447;-62
2022/09/11 03:52:36;;;;;;;46.45;14.43;;;;;;;18.33;67.13;99942.69;5074153;28;20091;-62
2022/09/11 03:55:04;;;;;;;32.20;14.02;;;;;;;18.30;67.00;99934.94;5073913;28;20076;-62
2022/09/11 03:57:35;;;;;;;46.75;14.30;;;;;;;18.29;67.73;99943.91;5073861;28;20122;-63
2022/09/11 04:00:03;;;;;;;39.75;14.07;;;;;;;18.29;66.95;99943.91;5074006;28;20083;-63
2022/09/11 04:02:30;;;;;;;30.45;14.77;;;;;;;18.29;67.42;99943.06;5074076;28;20056;-61
2022/09/11 04:04:57;;;;;;;48.72;12.77;;;;;;;18.27;67.30;99945.84;5074016;28;20088;-62
2022/09/11 04:07:24;;;;;;;47.25;13.32;;;;;;;18.26;67.19;99949.50;5073598;28;20044;-62
2022/09/11 04:09:50;;;;;;;24.65;12.85;;;;;;;18.26;67.35;99952.16;5073743;28;20102;-62
2022/09/11 04:12:18;;;;;;;29.25;13.60;;;;;;;18.25;67.58;99954.97;5074091;28;20084;-62
2022/09/11 04:14:45;;;;;;;36.00;13.85;;;;;;;18.24;67.29;99959.44;5073575;28;20136;-62
2022/09/11 04:17:11;;;;;;;47.75;15.13;;;;;;;18.23;67.08;99965.75;5073576;28;20119;-62
2022/09/11 04:19:38;;;;;;;43.88;14.23;;;;;;;18.22;67.30;99964.94;5073182;28;20512;-62
2022/09/11 04:22:04;;;;;;;17.98;12.07;;;;;;;18.23;67.58;99961.28;5072530;28;20471;-63
2022/09/11 04:24:31;;;;;;;29.73;14.23;;;;;;;18.23;67.44;99974.59;5073405;28;20064;-63
2022/09/11 04:26:59;;;;;;;30.08;12.77;;;;;;;18.23;67.44;99974.59;5073507;28;20477;-61
2022/09/11 04:29:27;;;;;;;40.35;15.48;;;;;;;18.23;67.43;99973.75;5073327;28;20273;-62
2022/09/11 04:31:54;;;;;;;23.00;13.70;;;;;;;18.23;67.47;99973.75;5072248;28;20063;-62
2022/09/11 04:34:21;;;;;;;28.10;13.15;;;;;;;18.22;67.60;99983.56;5073419;28;20041;-62
2022/09/11 04:36:48;;;;;;;23.48;13.27;;;;;;;18.22;67.68;99985.38;5072909;28;20106;-62
2022/09/11 04:39:15;;;;;;;41.30;13.52;;;;;;;18.22;67.45;99980.06;5073078;28;20056;-62
2022/09/11 04:41:43;;;;;;;36.50;13.93;;;;;;;18.22;67.58;99978.25;5055472;28;20052;-63
2022/09/11 04:44:09;;;;;;;51.60;15.05;;;;;;;18.21;67.27;99983.69;5073510;28;20171;-63
2022/09/11 04:46:36;;;;;;;47.00;13.60;;;;;;;18.20;67.68;99989.97;5073053;28;20496;-62
2022/09/11 04:49:02;;;;;;;44.22;15.00;;;;;;;18.19;67.65;99983.81;5072510;28;20131;-62
2022/09/11 04:51:33;;;;;;;37.65;13.63;;;;;;;18.19;67.69;99990.97;5072691;28;20155;-61
2022/09/11 04:54:01;;;;;;;18.92;14.55;;;;;;;18.20;67.97;99995.31;5072221;28;20121;-62
2022/09/11 04:56:31;;;;;;;38.67;14.18;;;;;;;18.18;68.13;99995.47;5071393;28;20135;-61
2022/09/11 04:59:00;;;;;;;39.17;13.38;;;;;;;18.18;67.89;99990.13;5072717;28;20519;-63
2022/09/11 05:01:29;;;;;;;25.48;11.95;;;;;;;18.20;68.16;99992.66;5072873;28;20554;-62
2022/09/11 05:03:56;;;;;;;40.90;12.40;;;;;;;18.19;67.84;99996.28;5072485;28;20126;-62
2022/09/11 05:06:22;;;;;;;34.95;12.20;;;;;;;18.20;67.90;99997.97;5072707;28;20076;-62
2022/09/11 05:08:49;;;;;;;50.75;15.57;;;;;;;18.21;67.84;99997.84;5072630;28;20140;-63
2022/09/11 05:11:19;;;;;;;40.03;13.43;;;;;;;18.22;68.21;100001.38;5072942;28;20052;-62
2022/09/11 05:13:47;;;;;;;20.90;12.65;;;;;;;18.23;68.13;99993.25;5072562;28;20109;-61
2022/09/11 05:16:16;;;;;;;18.25;14.18;;;;;;;18.23;68.15;100003.91;5072493;28;20144;-63
2022/09/11 05:18:50;;;;;;;50.45;15.15;;;;;;;18.23;68.58;99997.72;5072220;28;20040;-61
2022/09/11 05:21:18;;;;;;;25.40;13.45;;;;;;;18.25;67.97;100006.44;5071216;28;20555;-62
2022/09/11 05:23:50;;;;;;;32.17;12.88;;;;;;;18.26;68.63;100015.25;5071174;28;20048;-62
2022/09/11 05:26:19;;;;;;;47.05;12.20;;;;;;;18.28;68.32;100010.66;5072406;28;20472;-64
2022/09/11 05:28:46;;;;;;;91.97;14.15;;;;;;;18.29;67.88;100015.00;5070350;28;20060;-61
2022/09/11 05:31:17;;;;;;;59.75;13.18;;;;;;;18.27;68.50;100015.13;5072587;28;20218;-61
2022/09/11 05:33:45;;;;;;;24.88;12.40;;;;;;;18.29;68.12;100013.19;5072387;28;20054;-62
2022/09/11 05:36:13;;;;;;;23.27;12.10;;;;;;;18.31;68.08;100027.22;5071164;28;20462;-62
2022/09/11 05:38:40;;;;;;;35.95;13.38;;;;;;;18.33;68.59;100035.09;5071893;28;20083;-61
2022/09/11 05:41:10;;;;;;;65.57;14.13;;;;;;;18.33;68.17;100032.44;5070768;28;20082;-63
2022/09/11 05:43:38;;;;;;;40.22;13.90;;;;;;;18.34;68.40;100037.63;5071991;28;20055;-62
2022/09/11 05:46:06;;;;;;;29.77;13.60;;;;;;;18.34;68.57;100037.63;5070714;28;20057;-61
2022/09/11 05:48:35;;;;;;;32.40;14.45;;;;;;;18.36;68.55;100042.84;5070560;28;20084;-62
2022/09/11 05:51:09;;;;;;;29.77;14.63;;;;;;;18.34;68.74;100034.97;5072061;28;20060;-63
2022/09/11 05:53:36;;;;;;;21.63;13.75;;;;;;;18.38;68.65;100038.19;5071893;28;20138;-62
2022/09/11 05:56:18;;;;;;;37.65;14.05;;;;;;;18.38;69.04;100040.03;5071639;28;20088;-62
2022/09/11 05:58:46;;;;;;;40.28;15.30;;;;;;;18.42;68.55;100052.09;5071282;28;20044;-62
2022/09/11 06:01:22;;;;;;;28.83;14.60;;;;;;;18.45;68.72;100054.50;5070535;28;20488;-62
2022/09/11 06:03:49;;;;;;;30.17;14.73;;;;;;;18.48;68.90;100054.25;5070175;28;20084;-64
2022/09/11 06:06:18;;;;;;;50.92;15.18;;;;;;;18.51;69.00;100064.66;5071199;28;20136;-63
2022/09/11 06:08:46;;;;;;;19.60;14.82;;;;;;;18.54;68.58;100061.72;5071351;28;20087;-65
2022/09/11 06:11:15;;;;;;;25.30;14.68;;;;;;;18.57;68.65;100064.13;5071875;28;20048;-62
2022/09/11 06:13:45;;;;;;;22.80;14.50;;;;;;;18.59;68.95;100067.50;5070311;28;20492;-62
2022/09/11 06:16:14;;;;;;;31.17;14.55;;;;;;;18.61;68.70;100073.53;5071623;28;20102;-62
2022/09/11 06:18:47;;;;;;;18.30;14.23;;;;;;;18.66;68.49;100072.31;5070383;28;20143;-62
2022/09/11 06:21:19;;;;;;;17.13;13.82;;;;;;;18.68;68.50;100073.00;5070057;28;20055;-62
2022/09/11 06:23:50;;;;;;;16.08;13.23;;;;;;;18.67;68.67;100084.66;5071153;28;20091;-62
2022/09/11 06:26:25;;;;;;;16.30;13.65;;;;;;;18.68;68.56;100079.19;5129029;27;20809;-62
2022/09/11 06:28:52;;;;;;;14.80;12.40;;;;;;;18.70;68.61;100079.91;5128193;27;20074;-61
2022/09/11 06:31:23;;;;;;;19.75;12.65;;;;;;;18.72;68.49;100082.44;5128761;27;20070;-64
2022/09/11 06:33:50;;;;;;;14.10;11.15;;;;;;;18.76;68.72;100089.19;5127752;28;20051;-63
2022/09/11 06:36:19;;;;;;;17.67;13.27;;;;;;;18.78;69.00;100089.06;5128905;27;20094;-62
2022/09/11 06:38:45;;;;;;;13.98;12.50;;;;;;;18.80;68.78;100085.28;5128311;27;20078;-63
2022/09/11 06:41:14;;;;;;;16.60;13.02;;;;;;;18.84;68.73;100089.38;5128557;28;20086;-61
2022/09/11 06:43:42;;;;;;;14.40;12.77;;;;;;;18.87;68.48;100090.91;5128599;27;20051;-62
2022/09/11 06:46:13;;;;;;;15.98;12.90;;;;;;;18.89;68.71;100083.66;5128371;27;20079;-61
2022/09/11 06:48:42;;;;;;;14.95;11.98;;;;;;;18.93;68.27;100085.06;5128147;27;20106;-62
2022/09/11 06:51:12;;;;;;;14.98;12.73;;;;;;;18.96;68.77;100081.28;5128342;27;20050;-61
2022/09/11 06:53:39;;;;;;;15.45;12.85;;;;;;;18.99;68.35;100084.50;5127124;27;20096;-61
2022/09/11 06:56:11;;;;;;;15.35;12.40;;;;;;;19.02;68.26;100092.25;5128461;27;20051;-61
2022/09/11 06:58:38;;;;;;;15.68;12.55;;;;;;;19.07;68.31;100093.72;5128073;27;20138;-61
2022/09/11 07:01:08;;;;;;;17.63;14.75;;;;;;;19.08;68.10;100092.72;5128399;27;20491;-61
2022/09/11 07:03:36;;;;;;;16.80;13.70;;;;;;;19.12;67.95;100099.47;5128505;27;20181;-61
2022/09/11 07:06:04;;;;;;;19.92;15.85;;;;;;;19.13;67.75;100106.50;5127873;27;20052;-61
2022/09/11 07:08:31;;;;;;;21.10;15.77;;;;;;;19.13;67.59;100106.50;5126078;28;20525;-61
2022/09/11 07:11:05;;;;;;;19.75;15.77;;;;;;;19.11;68.02;100095.13;5128300;27;20134;-61
2022/09/11 07:13:33;;;;;;;19.55;16.17;;;;;;;19.11;67.43;100103.13;5128503;27;20083;-63
2022/09/11 07:16:08;;;;;;;19.00;15.23;;;;;;;19.08;67.60;100106.06;5128135;27;20511;-62
2022/09/11 07:18:40;;;;;;;17.45;13.95;;;;;;;19.06;67.54;100098.19;5127788;27;20122;-61
2022/09/11 07:21:10;;;;;;;17.35;13.07;;;;;;;19.07;67.70;100102.56;5128225;27;20043;-62
2022/09/11 07:23:39;;;;;;;14.82;12.40;;;;;;;19.08;67.85;100100.72;5126576;28;20086;-62
2022/09/11 07:26:08;;;;;;;16.70;12.82;;;;;;;19.08;67.86;100104.25;5126374;28;20514;-61
2022/09/11 07:28:36;;;;;;;15.02;12.27;;;;;;;19.11;67.64;100103.13;5127341;27;20051;-62
2022/09/11 07:31:03;;;;;;;17.20;13.35;;;;;;;19.12;67.69;100113.69;5127438;27;20074;-62
2022/09/11 07:33:30;;;;;;;15.93;11.95;;;;;;;19.16;67.86;100111.56;5127726;27;20131;-62
2022/09/11 07:35:56;;;;;;;15.68;11.18;;;;;;;19.19;67.85;100108.66;5124142;27;20044;-62
2022/09/11 07:38:23;;;;;;;12.60;11.05;;;;;;;19.21;67.70;100114.69;5113279;28;20052;-62
2022/09/11 07:40:53;;;;;;;15.40;12.27;;;;;;;19.22;67.90;100111.03;5114043;28;20047;-61
2022/09/11 07:43:19;;;;;;;15.73;13.02;;;;;;;19.28;67.93;100112.31;5111959;28;20491;-62
2022/09/11 07:45:47;;;;;;;18.55;15.13;;;;;;;19.31;67.54;100120.06;5113250;28;20079;-61
2022/09/11 07:48:14;;;;;;;23.15;14.00;;;;;;;19.33;67.49;100119.94;5112729;28;20058;-62
2022/09/11 07:50:40;;;;;;;32.55;13.80;;;;;;;19.35;67.38;100124.16;5112861;28;20127;-62
2022/09/11 07:53:07;;;;;;;16.95;13.40;;;;;;;19.36;67.02;100117.00;5113874;28;20105;-63
2022/09/11 07:55:33;;;;;;;15.52;13.00;;;;;;;19.37;67.22;100127.50;5113602;28;20128;-62
2022/09/11 07:58:00;;;;;;;15.55;12.73;;;;;;;19.37;67.11;100124.84;5113254;28;20047;-62
2022/09/11 08:00:27;;;;;;;15.45;12.85;;;;;;;19.38;66.93;100120.34;5113395;28;20097;-62
2022/09/11 08:02:55;;;;;;;14.50;12.25;;;;;;;19.40;67.26;100123.75;5113322;28;20052;-62
2022/09/11 08:05:22;;;;;;;14.05;12.27;;;;;;;19.40;67.14;100123.75;5113124;28;20488;-62
2022/09/11 08:07:48;;;;;;;15.55;12.85;;;;;;;19.40;67.34;100129.91;5113276;28;20082;-62
2022/09/11 08:10:15;;;;;;;13.85;11.85;;;;;;;19.40;67.26;100129.09;5112703;28;20137;-62
2022/09/11 08:12:53;;;;;;;18.73;16.35;;;;;;;19.42;67.13;100131.59;5113294;28;20088;-62
2022/09/11 08:15:26;;;;;;;17.70;14.70;;;;;;;19.43;67.16;100134.13;5113484;28;20090;-63
2022/09/11 08:17:53;;;;;;;16.95;14.30;;;;;;;19.42;67.11;100131.59;5113061;28;20051;-62
2022/09/11 08:20:20;;;;;;;22.15;16.40;;;;;;;19.43;66.97;100139.47;5112429;28;20131;-61
2022/09/11 08:22:47;;;;;;;20.90;15.85;;;;;;;19.43;66.64;100139.47;5113037;28;20142;-63
2022/09/11 08:25:13;;;;;;;22.23;17.40;;;;;;;19.42;66.88;100139.59;5113069;28;20136;-61
2022/09/11 08:27:40;;;;;;;20.77;16.40;;;;;;;19.42;67.03;100144.94;5112675;28;20083;-62
2022/09/11 08:30:07;;;;;;;20.13;14.80;;;;;;;19.44;67.39;100151.00;5112381;28;20058;-64
2022/09/11 08:32:33;;;;;;;16.35;13.80;;;;;;;19.47;67.13;100153.41;5112780;28;20503;-61
2022/09/11 08:35:00;;;;;;;14.90;12.45;;;;;;;19.50;67.27;100155.78;5112728;28;20483;-62
2022/09/11 08:37:27;;;;;;;15.85;11.88;;;;;;;19.53;67.30;100156.38;5112389;28;20268;-63
2022/09/11 08:39:53;;;;;;;13.73;11.15;;;;;;;19.56;67.04;100160.59;5112601;28;20116;-62
2022/09/11 08:42:20;;;;;;;15.63;12.90;;;;;;;19.59;66.94;100165.66;5113103;28;20051;-62
2022/09/11 08:44:54;;;;;;;13.98;11.35;;;;;;;19.60;66.68;100170.03;5113082;28;20056;-63
2022/09/11 08:47:25;;;;;;;15.52;12.43;;;;;;;19.64;66.68;100174.13;5112031;28;20079;-63
2022/09/11 08:50:10;;;;;;;16.63;13.00;;;;;;;19.64;66.24;100179.47;5110312;28;20043;-62
2022/09/11 08:52:37;;;;;;;17.40;13.70;;;;;;;19.71;66.49;100174.41;5110188;28;20504;-61
2022/09/11 08:55:05;;;;;;;15.65;12.70;;;;;;;19.72;65.84;100175.25;5112293;28;20511;-61
2022/09/11 08:57:49;;;;;;;15.80;12.65;;;;;;;19.68;65.93;100177.34;5111812;28;20075;-61
2022/09/11 09:00:20;;;;;;;17.80;13.07;;;;;;;19.71;65.92;100176.22;5110990;28;20043;-61
2022/09/11 09:03:07;;;;;;;14.93;11.73;;;;;;;19.70;65.67;100182.56;5112490;28;20052;-62
2022/09/11 09:05:52;;;;;;;16.48;13.15;;;;;;;19.73;65.63;100185.78;5112013;28;20047;-61
2022/09/11 09:08:50;;;;;;;18.35;12.93;;;;;;;19.71;66.04;100194.94;5111959;28;20044;-61
2022/09/11 09:11:17;;;;;;;15.40;12.05;;;;;;;19.77;66.13;100191.69;5111170;28;20044;-61
2022/09/11 09:13:47;;;;;;;19.38;13.50;;;;;;;19.74;66.13;100194.66;5111897;28;20060;-62
2022/09/11 09:16:27;;;;;;;17.83;13.88;;;;;;;19.76;66.12;100193.53;5112212;28;20087;-61
2022/09/11 09:19:13;;;;;;;20.80;14.15;;;;;;;19.73;66.13;100199.16;5103505;28;20075;-62
2022/09/11 09:21:54;;;;;;;19.88;13.82;;;;;;;19.76;65.93;100198.88;5112452;28;20115;-62
2022/09/11 09:24:22;;;;;;;18.42;14.05;;;;;;;19.80;66.53;100210.13;5111481;28;20101;-61
2022/09/11 09:26:51;;;;;;;17.27;12.55;;;;;;;19.80;65.97;100204.78;5111562;28;20044;-61
2022/09/11 09:29:23;;;;;;;19.75;13.48;;;;;;;19.82;66.28;100204.66;5111476;28;20478;-61
2022/09/11 09:31:56;;;;;;;19.13;13.80;;;;;;;19.85;66.26;100207.06;5111787;28;20083;-62
2022/09/11 09:34:26;;;;;;;22.33;13.93;;;;;;;19.88;66.09;100207.63;5111379;28;20471;-61
2022/09/11 09:37:11;;;;;;;19.60;13.90;;;;;;;19.87;65.83;100216.63;5111434;28;20101;-61
2022/09/11 09:39:38;;;;;;;14.63;11.00;;;;;;;19.96;66.15;100219.47;5111412;28;20134;-62
2022/09/11 09:42:19;;;;;;;15.00;10.43;;;;;;;19.96;65.89;100214.13;5111610;28;20104;-62
2022/09/11 09:45:23;;;;;;;18.20;11.40;;;;;;;19.97;65.96;100222.00;5110226;28;20051;-62
2022/09/11 09:47:50;;;;;;;14.40;11.65;;;;;;;20.06;65.83;100225.69;5111271;28;20074;-62
2022/09/11 09:50:20;;;;;;;15.60;11.63;;;;;;;20.08;65.58;100223.72;5111173;28;20142;-62
2022/09/11 09:52:48;;;;;;;16.88;12.50;;;;;;;20.14;66.33;100220.50;5110064;28;20089;-63
2022/09/11 09:55:17;;;;;;;15.30;11.93;;;;;;;20.21;66.32;100230.63;5111123;28;20086;-62
2022/09/11 09:57:44;;;;;;;14.43;10.75;;;;;;;20.28;65.54;100231.75;5109931;28;20092;-63
2022/09/11 10:00:16;;;;;;;16.90;11.55;;;;;;;20.34;65.62;100238.38;5110815;28;20150;-63
2022/09/11 10:02:56;;;;;;;15.93;11.85;;;;;;;20.40;65.01;100235.13;5110936;28;20120;-62
2022/09/11 10:05:42;;;;;;;14.27;11.10;;;;;;;20.45;64.76;100230.25;5111303;28;20537;-64
2022/09/11 10:08:30;;;;;;;13.80;10.82;;;;;;;20.51;64.54;100232.34;5109599;28;20056;-61
2022/09/11 10:11:03;;;;;;;14.77;10.98;;;;;;;20.59;64.17;100239.66;5109704;28;20079;-62
2022/09/11 10:13:32;;;;;;;15.00;10.75;;;;;;;20.64;64.39;100234.72;5110818;28;20075;-61
2022/09/11 10:16:02;;;;;;;15.52;10.77;;;;;;;20.67;64.32;100239.78;5109495;28;20411;-61
2022/09/11 10:18:29;;;;;;;11.35;9.52;;;;;;;20.71;64.39;100227.00;5109828;28;20145;-61
2022/09/11 10:21:11;;;;;;;13.93;10.52;;;;;;;20.68;63.80;100230.78;5111158;28;20117;-61
2022/09/11 10:23:53;;;;;;;14.05;10.82;;;;;;;20.74;63.53;100241.91;5110744;28;20207;-61
2022/09/11 10:26:32;;;;;;;12.07;10.55;;;;;;;20.77;63.52;100234.44;5110884;28;20043;-61
2022/09/11 10:29:14;;;;;;;12.38;10.02;;;;;;;20.81;62.49;100233.16;5108913;28;20051;-61
2022/09/11 10:31:48;;;;;;;14.43;10.07;;;;;;;20.87;62.48;100233.56;5110959;28;20599;-60
2022/09/11 10:34:21;;;;;;;12.55;10.32;;;;;;;20.94;63.71;100227.53;5109888;28;20047;-64
2022/09/11 10:37:22;;;;;;;13.30;10.20;;;;;;;20.99;63.78;100232.47;5110078;28;20555;-62
2022/09/11 10:39:49;;;;;;;13.02;10.18;;;;;;;21.17;64.53;100234.38;5109251;28;20551;-62
2022/09/11 10:42:21;;;;;;;12.98;9.88;;;;;;;21.31;64.78;100231.22;5109283;28;20055;-61
2022/09/11 10:44:50;;;;;;;14.05;10.75;;;;;;;21.49;64.24;100235.81;5109418;28;20096;-63
2022/09/11 10:47:20;;;;;;;15.70;10.18;;;;;;;21.68;63.27;100226.84;5110390;28;20044;-60
2022/09/11 10:49:48;;;;;;;12.18;9.73;;;;;;;21.90;64.68;100218.59;5109620;28;20059;-63
2022/09/11 10:52:17;;;;;;;13.55;10.45;;;;;;;22.08;63.06;100215.94;5110251;28;20452;-62
2022/09/11 10:54:51;;;;;;;11.52;9.70;;;;;;;22.22;61.04;100211.88;5110429;28;20047;-62
2022/09/11 10:57:26;;;;;;;11.50;9.65;;;;;;;22.37;59.41;100217.56;5110772;28;20099;-62
2022/09/11 11:00:08;;;;;;;16.60;9.10;;;;;;;22.53;62.80;100208.81;5110268;28;20134;-61
2022/09/11 11:02:38;;;;;;;9.95;8.75;;;;;;;22.75;63.17;100212.88;5109278;28;20052;-61
2022/09/11 11:05:25;;;;;;;9.02;7.80;;;;;;;23.05;61.92;100215.25;5091527;28;20071;-60
2022/09/11 11:08:18;;;;;;;10.75;8.25;;;;;;;23.49;61.39;100218.88;5108592;28;20075;-61
2022/09/11 11:11:09;;;;;;;9.23;7.20;;;;;;;24.05;62.19;100211.16;5107872;28;20069;-61
2022/09/11 11:13:54;;;;;;;6.70;5.70;;;;;;;24.76;61.78;100215.25;5109560;27;20083;-61
2022/09/11 11:16:26;;;;;;;7.28;6.30;;;;;;;25.50;58.69;100216.13;5112095;27;20608;-62
2022/09/11 11:19:17;;;;;;;5.47;4.68;;;;;;;26.23;57.97;100215.06;5103947;27;20044;-61
2022/09/11 11:21:53;;;;;;;5.15;4.25;;;;;;;26.98;59.50;100218.03;5111585;28;20351;-60
2022/09/11 11:24:20;;;;;;;6.75;4.68;;;;;;;27.68;58.51;100214.22;5112609;28;20063;-61
2022/09/11 11:26:58;;;;;;;4.97;4.10;;;;;;;28.34;54.59;100210.56;5110832;28;20105;-64
2022/09/11 11:29:50;;;;;;;5.07;4.00;;;;;;;29.04;53.35;100213.66;5116351;27;20063;-61
2022/09/11 11:32:45;;;;;;;4.72;3.78;;;;;;;29.73;52.08;100217.34;5125541;27;20051;-61
2022/09/11 11:35:20;;;;;;;4.38;3.63;;;;;;;30.38;50.58;100217.94;5113007;28;20064;-61
2022/09/11 11:37:52;;;;;;;3.97;3.28;;;;;;;30.91;50.67;100214.38;5111843;28;20170;-62